sensor_id;sensor_type;location;lat;lon;timestamp;P1;durP1;ratioP1;P2;durP2;ratioP2
71959;SDS011;59832;51.146;14.024;2022-10-31T00:01:13;23.52;;;14.23;;
71959;SDS011;59832;51.146;14.024;2022-10-31T00:03:42;24.33;;;14.77;;
71959;SDS011;59832;51.146;14.024;2022-10-31T00:06:09;25.95;;;15.32;;
71959;SDS011;59832;51.146;14.024;2022-10-31T00:08:36;28.27;;;14.68;;
71959;SDS011;59832;51.146;14.024;2022-10-31T00:11:03;23.77;;;14.25;;
71959;SDS011;59832;51.146;14.024;2022-10-31T00:13:34;24.85;;;14.25;;
71959;SDS011;59832;51.146;14.024;2022-10-31T00:16:03;20.02;;;13.60;;
71959;SDS011;59832;51.146;14.024;2022-10-31T00:18:33;24.77;;;14.07;;
71959;SDS011;59832;51.146;14.024;2022-10-31T00:21:01;27.05;;;14.60;;
71959;SDS011;59832;51.146;14.024;2022-10-31T00:23:29;23.70;;;14.80;;
71959;SDS011;59832;51.146;14.024;2022-10-31T00:25:59;22.73;;;13.75;;
71959;SDS011;59832;51.146;14.024;2022-10-31T00:28:33;28.30;;;14.38;;
71959;SDS011;59832;51.146;14.024;2022-10-31T00:31:00;26.10;;;13.52;;
71959;SDS011;59832;51.146;14.024;2022-10-31T00:33:28;29.88;;;14.18;;
71959;SDS011;59832;51.146;14.024;2022-10-31T00:38:27;22.30;;;13.15;;
71959;SDS011;59832;51.146;14.024;2022-10-31T00:40:54;23.02;;;13.77;;
71959;SDS011;59832;51.146;14.024;2022-10-31T00:43:21;23.17;;;14.73;;
71959;SDS011;59832;51.146;14.024;2022-10-31T00:45:47;22.30;;;14.15;;
71959;SDS011;59832;51.146;14.024;2022-10-31T00:48:17;21.45;;;13.38;;
71959;SDS011;59832;51.146;14.024;2022-10-31T00:50:46;27.05;;;13.95;;
71959;SDS011;59832;51.146;14.024;2022-10-31T00:53:16;22.50;;;14.00;;
71959;SDS011;59832;51.146;14.024;2022-10-31T00:55:44;22.30;;;13.50;;
71959;SDS011;59832;51.146;14.024;2022-10-31T00:58:11;23.55;;;13.68;;
71959;SDS011;59832;51.146;14.024;2022-10-31T01:00:41;23.02;;;12.82;;
71959;SDS011;59832;51.146;14.024;2022-10-31T01:03:14;26.52;;;12.73;;
71959;SDS011;59832;51.146;14.024;2022-10-31T01:05:41;22.33;;;12.55;;
71959;SDS011;59832;51.146;14.024;2022-10-31T01:08:08;23.35;;;12.95;;
71959;SDS011;59832;51.146;14.024;2022-10-31T01:10:35;21.98;;;13.25;;
71959;SDS011;59832;51.146;14.024;2022-10-31T01:13:02;25.35;;;13.43;;
71959;SDS011;59832;51.146;14.024;2022-10-31T01:15:28;20.48;;;12.25;;
71959;SDS011;59832;51.146;14.024;2022-10-31T01:17:55;22.83;;;12.50;;
71959;SDS011;59832;51.146;14.024;2022-10-31T01:20:25;16.92;;;11.52;;
71959;SDS011;59832;51.146;14.024;2022-10-31T01:22:52;22.02;;;11.88;;
71959;SDS011;59832;51.146;14.024;2022-10-31T01:25:19;22.50;;;12.50;;
71959;SDS011;59832;51.146;14.024;2022-10-31T01:27:46;27.02;;;13.02;;
71959;SDS011;59832;51.146;14.024;2022-10-31T01:30:13;23.53;;;12.40;;
71959;SDS011;59832;51.146;14.024;2022-10-31T01:32:39;22.07;;;12.77;;
71959;SDS011;59832;51.146;14.024;2022-10-31T01:35:06;21.95;;;12.50;;
71959;SDS011;59832;51.146;14.024;2022-10-31T01:37:33;27.10;;;13.35;;
71959;SDS011;59832;51.146;14.024;2022-10-31T01:40:00;20.35;;;12.20;;
71959;SDS011;59832;51.146;14.024;2022-10-31T01:42:27;21.85;;;12.40;;
71959;SDS011;59832;51.146;14.024;2022-10-31T01:44:58;18.03;;;11.17;;
71959;SDS011;59832;51.146;14.024;2022-10-31T01:47:31;18.48;;;11.38;;
71959;SDS011;59832;51.146;14.024;2022-10-31T01:50:06;17.63;;;11.70;;
71959;SDS011;59832;51.146;14.024;2022-10-31T01:52:47;17.38;;;10.85;;
71959;SDS011;59832;51.146;14.024;2022-10-31T01:55:17;21.23;;;11.88;;
71959;SDS011;59832;51.146;14.024;2022-10-31T01:57:55;23.08;;;11.50;;
71959;SDS011;59832;51.146;14.024;2022-10-31T02:00:26;21.30;;;11.75;;
71959;SDS011;59832;51.146;14.024;2022-10-31T02:02:53;23.08;;;12.35;;
71959;SDS011;59832;51.146;14.024;2022-10-31T02:05:23;23.02;;;11.55;;
71959;SDS011;59832;51.146;14.024;2022-10-31T02:07:53;18.80;;;11.93;;
71959;SDS011;59832;51.146;14.024;2022-10-31T02:10:23;22.13;;;11.05;;
71959;SDS011;59832;51.146;14.024;2022-10-31T02:12:51;18.05;;;10.27;;
71959;SDS011;59832;51.146;14.024;2022-10-31T02:15:21;19.52;;;10.50;;
71959;SDS011;59832;51.146;14.024;2022-10-31T02:17:51;17.48;;;9.95;;
71959;SDS011;59832;51.146;14.024;2022-10-31T02:20:25;19.38;;;10.88;;
71959;SDS011;59832;51.146;14.024;2022-10-31T02:25:57;15.98;;;10.43;;
71959;SDS011;59832;51.146;14.024;2022-10-31T02:28:52;16.80;;;10.38;;
71959;SDS011;59832;51.146;14.024;2022-10-31T02:31:19;18.63;;;10.43;;
71959;SDS011;59832;51.146;14.024;2022-10-31T02:39:25;14.77;;;9.80;;
71959;SDS011;59832;51.146;14.024;2022-10-31T02:42:04;18.95;;;10.13;;
71959;SDS011;59832;51.146;14.024;2022-10-31T02:47:33;16.30;;;9.68;;
71959;SDS011;59832;51.146;14.024;2022-10-31T02:50:13;17.33;;;10.15;;
71959;SDS011;59832;51.146;14.024;2022-10-31T02:52:43;17.02;;;9.50;;
71959;SDS011;59832;51.146;14.024;2022-10-31T02:57:49;14.02;;;8.60;;
71959;SDS011;59832;51.146;14.024;2022-10-31T03:00:35;15.18;;;9.23;;
71959;SDS011;59832;51.146;14.024;2022-10-31T03:14:47;12.60;;;8.48;;
71959;SDS011;59832;51.146;14.024;2022-10-31T03:17:25;12.82;;;8.48;;
71959;SDS011;59832;51.146;14.024;2022-10-31T03:19:58;13.27;;;8.23;;
71959;SDS011;59832;51.146;14.024;2022-10-31T03:22:29;12.52;;;8.30;;
71959;SDS011;59832;51.146;14.024;2022-10-31T03:24:57;15.55;;;8.38;;
71959;SDS011;59832;51.146;14.024;2022-10-31T03:27:27;14.23;;;8.40;;
71959;SDS011;59832;51.146;14.024;2022-10-31T03:30:00;11.13;;;7.65;;
71959;SDS011;59832;51.146;14.024;2022-10-31T03:32:40;15.30;;;8.98;;
71959;SDS011;59832;51.146;14.024;2022-10-31T03:35:13;12.70;;;8.07;;
71959;SDS011;59832;51.146;14.024;2022-10-31T03:37:43;12.88;;;8.07;;
71959;SDS011;59832;51.146;14.024;2022-10-31T03:40:11;14.05;;;7.75;;
71959;SDS011;59832;51.146;14.024;2022-10-31T03:42:41;11.73;;;8.38;;
71959;SDS011;59832;51.146;14.024;2022-10-31T03:45:16;15.70;;;8.38;;
71959;SDS011;59832;51.146;14.024;2022-10-31T03:47:47;14.68;;;8.63;;
71959;SDS011;59832;51.146;14.024;2022-10-31T03:50:14;13.77;;;8.07;;
71959;SDS011;59832;51.146;14.024;2022-10-31T03:53:29;16.35;;;7.75;;
71959;SDS011;59832;51.146;14.024;2022-10-31T03:55:59;11.30;;;7.75;;
71959;SDS011;59832;51.146;14.024;2022-10-31T03:58:34;11.02;;;7.40;;
71959;SDS011;59832;51.146;14.024;2022-10-31T04:01:06;11.83;;;7.27;;
71959;SDS011;59832;51.146;14.024;2022-10-31T04:03:40;14.48;;;7.60;;
71959;SDS011;59832;51.146;14.024;2022-10-31T04:06:12;10.70;;;7.15;;
71959;SDS011;59832;51.146;14.024;2022-10-31T04:08:42;10.80;;;7.13;;
71959;SDS011;59832;51.146;14.024;2022-10-31T04:11:18;15.40;;;7.90;;
71959;SDS011;59832;51.146;14.024;2022-10-31T04:13:51;15.98;;;8.30;;
71959;SDS011;59832;51.146;14.024;2022-10-31T04:16:19;14.85;;;7.53;;
71959;SDS011;59832;51.146;14.024;2022-10-31T04:18:50;18.08;;;7.68;;
71959;SDS011;59832;51.146;14.024;2022-10-31T04:21:18;11.75;;;7.53;;
71959;SDS011;59832;51.146;14.024;2022-10-31T04:23:46;10.60;;;7.65;;
71959;SDS011;59832;51.146;14.024;2022-10-31T04:26:12;11.73;;;7.22;;
71959;SDS011;59832;51.146;14.024;2022-10-31T04:28:40;11.30;;;7.40;;
71959;SDS011;59832;51.146;14.024;2022-10-31T04:31:08;11.52;;;7.35;;
71959;SDS011;59832;51.146;14.024;2022-10-31T04:33:36;8.23;;;6.28;;
71959;SDS011;59832;51.146;14.024;2022-10-31T04:36:03;9.60;;;6.72;;
71959;SDS011;59832;51.146;14.024;2022-10-31T04:38:32;11.63;;;7.35;;
71959;SDS011;59832;51.146;14.024;2022-10-31T04:40:59;11.73;;;6.85;;
71959;SDS011;59832;51.146;14.024;2022-10-31T04:43:26;10.32;;;7.45;;
71959;SDS011;59832;51.146;14.024;2022-10-31T04:45:53;11.50;;;7.75;;
71959;SDS011;59832;51.146;14.024;2022-10-31T04:48:20;11.45;;;7.30;;
71959;SDS011;59832;51.146;14.024;2022-10-31T04:50:47;10.32;;;7.35;;
71959;SDS011;59832;51.146;14.024;2022-10-31T04:53:15;12.23;;;6.90;;
71959;SDS011;59832;51.146;14.024;2022-10-31T04:55:41;10.43;;;6.97;;
71959;SDS011;59832;51.146;14.024;2022-10-31T04:58:08;11.23;;;7.22;;
71959;SDS011;59832;51.146;14.024;2022-10-31T05:00:35;8.85;;;6.50;;
71959;SDS011;59832;51.146;14.024;2022-10-31T05:03:02;9.95;;;6.63;;
71959;SDS011;59832;51.146;14.024;2022-10-31T05:05:30;9.23;;;6.80;;
71959;SDS011;59832;51.146;14.024;2022-10-31T05:07:57;10.68;;;6.75;;
71959;SDS011;59832;51.146;14.024;2022-10-31T05:10:25;9.80;;;6.57;;
71959;SDS011;59832;51.146;14.024;2022-10-31T05:12:54;11.88;;;6.30;;
71959;SDS011;59832;51.146;14.024;2022-10-31T05:15:23;10.60;;;5.93;;
71959;SDS011;59832;51.146;14.024;2022-10-31T05:17:51;12.93;;;6.70;;
71959;SDS011;59832;51.146;14.024;2022-10-31T05:20:19;9.73;;;6.03;;
71959;SDS011;59832;51.146;14.024;2022-10-31T05:22:48;7.70;;;6.40;;
71959;SDS011;59832;51.146;14.024;2022-10-31T05:25:19;9.95;;;6.15;;
71959;SDS011;59832;51.146;14.024;2022-10-31T05:27:48;9.95;;;6.05;;
71959;SDS011;59832;51.146;14.024;2022-10-31T05:30:18;13.35;;;6.55;;
71959;SDS011;59832;51.146;14.024;2022-10-31T05:32:48;6.78;;;5.90;;
71959;SDS011;59832;51.146;14.024;2022-10-31T05:35:18;12.48;;;5.93;;
71959;SDS011;59832;51.146;14.024;2022-10-31T05:37:50;7.60;;;5.97;;
71959;SDS011;59832;51.146;14.024;2022-10-31T05:40:18;8.40;;;6.13;;
71959;SDS011;59832;51.146;14.024;2022-10-31T05:42:46;10.75;;;5.78;;
71959;SDS011;59832;51.146;14.024;2022-10-31T05:45:14;8.82;;;6.10;;
71959;SDS011;59832;51.146;14.024;2022-10-31T05:47:49;14.90;;;6.18;;
71959;SDS011;59832;51.146;14.024;2022-10-31T05:50:20;11.35;;;6.35;;
71959;SDS011;59832;51.146;14.024;2022-10-31T05:52:53;8.70;;;5.68;;
71959;SDS011;59832;51.146;14.024;2022-10-31T05:55:24;8.70;;;6.00;;
71959;SDS011;59832;51.146;14.024;2022-10-31T05:57:52;10.13;;;6.55;;
71959;SDS011;59832;51.146;14.024;2022-10-31T06:00:23;8.18;;;6.15;;
71959;SDS011;59832;51.146;14.024;2022-10-31T06:02:59;10.35;;;5.90;;
71959;SDS011;59832;51.146;14.024;2022-10-31T06:05:34;9.40;;;6.28;;
71959;SDS011;59832;51.146;14.024;2022-10-31T06:08:04;10.13;;;6.03;;
71959;SDS011;59832;51.146;14.024;2022-10-31T06:10:45;7.80;;;5.47;;
71959;SDS011;59832;51.146;14.024;2022-10-31T06:13:17;11.55;;;5.68;;
71959;SDS011;59832;51.146;14.024;2022-10-31T06:15:47;12.35;;;6.00;;
71959;SDS011;59832;51.146;14.024;2022-10-31T06:18:15;9.52;;;5.68;;
71959;SDS011;59832;51.146;14.024;2022-10-31T06:20:50;8.38;;;5.60;;
71959;SDS011;59832;51.146;14.024;2022-10-31T06:23:44;15.32;;;8.77;;
71959;SDS011;59832;51.146;14.024;2022-10-31T06:26:19;14.05;;;8.35;;
71959;SDS011;59832;51.146;14.024;2022-10-31T06:28:49;19.50;;;13.02;;
71959;SDS011;59832;51.146;14.024;2022-10-31T06:31:29;18.42;;;12.48;;
71959;SDS011;59832;51.146;14.024;2022-10-31T06:34:04;18.17;;;12.65;;
71959;SDS011;59832;51.146;14.024;2022-10-31T06:39:12;20.42;;;13.05;;
71959;SDS011;59832;51.146;14.024;2022-10-31T06:41:42;15.30;;;10.00;;
71959;SDS011;59832;51.146;14.024;2022-10-31T06:44:13;18.10;;;10.68;;
71959;SDS011;59832;51.146;14.024;2022-10-31T06:46:43;10.25;;;8.00;;
71959;SDS011;59832;51.146;14.024;2022-10-31T06:49:11;12.60;;;7.93;;
71959;SDS011;59832;51.146;14.024;2022-10-31T06:51:46;11.43;;;8.63;;
71959;SDS011;59832;51.146;14.024;2022-10-31T06:54:14;12.73;;;7.55;;
71959;SDS011;59832;51.146;14.024;2022-10-31T06:59:14;14.95;;;8.35;;
71959;SDS011;59832;51.146;14.024;2022-10-31T07:01:44;11.38;;;7.05;;
71959;SDS011;59832;51.146;14.024;2022-10-31T07:04:17;14.05;;;9.65;;
71959;SDS011;59832;51.146;14.024;2022-10-31T07:06:46;14.55;;;9.77;;
71959;SDS011;59832;51.146;14.024;2022-10-31T07:09:17;19.15;;;11.43;;
71959;SDS011;59832;51.146;14.024;2022-10-31T07:11:45;15.85;;;10.75;;
71959;SDS011;59832;51.146;14.024;2022-10-31T07:14:12;21.88;;;12.60;;
71959;SDS011;59832;51.146;14.024;2022-10-31T07:16:39;18.33;;;11.40;;
71959;SDS011;59832;51.146;14.024;2022-10-31T07:19:06;15.32;;;9.73;;
71959;SDS011;59832;51.146;14.024;2022-10-31T07:21:34;13.82;;;8.50;;
71959;SDS011;59832;51.146;14.024;2022-10-31T07:24:03;19.55;;;9.80;;
71959;SDS011;59832;51.146;14.024;2022-10-31T07:26:34;10.90;;;7.82;;
71959;SDS011;59832;51.146;14.024;2022-10-31T07:29:03;12.48;;;6.28;;
71959;SDS011;59832;51.146;14.024;2022-10-31T07:31:39;12.38;;;6.70;;
71959;SDS011;59832;51.146;14.024;2022-10-31T07:34:06;9.30;;;6.18;;
71959;SDS011;59832;51.146;14.024;2022-10-31T07:36:35;11.25;;;6.38;;
71959;SDS011;59832;51.146;14.024;2022-10-31T07:39:16;13.32;;;5.95;;
71959;SDS011;59832;51.146;14.024;2022-10-31T07:41:49;8.77;;;5.65;;
71959;SDS011;59832;51.146;14.024;2022-10-31T07:44:19;9.60;;;6.30;;
71959;SDS011;59832;51.146;14.024;2022-10-31T07:46:56;8.20;;;6.65;;
71959;SDS011;59832;51.146;14.024;2022-10-31T07:49:22;12.43;;;9.00;;
71959;SDS011;59832;51.146;14.024;2022-10-31T07:51:53;13.43;;;7.95;;
71959;SDS011;59832;51.146;14.024;2022-10-31T07:54:28;10.85;;;7.82;;
71959;SDS011;59832;51.146;14.024;2022-10-31T07:56:55;11.30;;;9.10;;
71959;SDS011;59832;51.146;14.024;2022-10-31T07:59:22;12.20;;;8.45;;
71959;SDS011;59832;51.146;14.024;2022-10-31T08:01:49;10.85;;;8.00;;
71959;SDS011;59832;51.146;14.024;2022-10-31T08:04:16;9.55;;;8.05;;
71959;SDS011;59832;51.146;14.024;2022-10-31T08:06:45;11.80;;;8.80;;
71959;SDS011;59832;51.146;14.024;2022-10-31T08:09:14;11.52;;;8.50;;
71959;SDS011;59832;51.146;14.024;2022-10-31T08:11:44;12.73;;;8.65;;
71959;SDS011;59832;51.146;14.024;2022-10-31T08:14:19;9.05;;;8.00;;
71959;SDS011;59832;51.146;14.024;2022-10-31T08:16:48;11.63;;;9.05;;
71959;SDS011;59832;51.146;14.024;2022-10-31T08:19:15;10.95;;;7.55;;
71959;SDS011;59832;51.146;14.024;2022-10-31T08:24:28;9.38;;;6.95;;
71959;SDS011;59832;51.146;14.024;2022-10-31T08:26:56;9.68;;;7.05;;
71959;SDS011;59832;51.146;14.024;2022-10-31T08:29:23;13.05;;;8.05;;
71959;SDS011;59832;51.146;14.024;2022-10-31T08:31:50;14.77;;;9.48;;
71959;SDS011;59832;51.146;14.024;2022-10-31T08:34:19;15.07;;;10.38;;
71959;SDS011;59832;51.146;14.024;2022-10-31T08:36:45;11.80;;;8.13;;
71959;SDS011;59832;51.146;14.024;2022-10-31T08:39:12;17.60;;;10.60;;
71959;SDS011;59832;51.146;14.024;2022-10-31T08:41:39;20.10;;;10.68;;
71959;SDS011;59832;51.146;14.024;2022-10-31T08:44:05;14.90;;;9.00;;
71959;SDS011;59832;51.146;14.024;2022-10-31T08:46:32;15.48;;;9.52;;
71959;SDS011;59832;51.146;14.024;2022-10-31T08:48:59;5.80;;;4.35;;
71959;SDS011;59832;51.146;14.024;2022-10-31T08:51:25;7.32;;;4.10;;
71959;SDS011;59832;51.146;14.024;2022-10-31T08:53:54;4.85;;;3.58;;
71959;SDS011;59832;51.146;14.024;2022-10-31T08:56:26;6.78;;;3.67;;
71959;SDS011;59832;51.146;14.024;2022-10-31T08:58:55;5.65;;;3.47;;
71959;SDS011;59832;51.146;14.024;2022-10-31T09:01:22;7.78;;;3.70;;
71959;SDS011;59832;51.146;14.024;2022-10-31T09:03:49;6.35;;;3.60;;
71959;SDS011;59832;51.146;14.024;2022-10-31T09:06:16;3.90;;;3.20;;
71959;SDS011;59832;51.146;14.024;2022-10-31T09:08:42;5.18;;;3.40;;
71959;SDS011;59832;51.146;14.024;2022-10-31T09:11:09;7.45;;;4.22;;
71959;SDS011;59832;51.146;14.024;2022-10-31T09:13:35;8.05;;;3.80;;
71959;SDS011;59832;51.146;14.024;2022-10-31T09:16:06;7.70;;;3.50;;
71959;SDS011;59832;51.146;14.024;2022-10-31T09:18:36;5.00;;;3.33;;
71959;SDS011;59832;51.146;14.024;2022-10-31T09:21:04;6.85;;;3.40;;
71959;SDS011;59832;51.146;14.024;2022-10-31T09:23:31;7.72;;;3.42;;
71959;SDS011;59832;51.146;14.024;2022-10-31T09:25:59;5.72;;;2.83;;
71959;SDS011;59832;51.146;14.024;2022-10-31T09:28:26;5.53;;;3.17;;
71959;SDS011;59832;51.146;14.024;2022-10-31T09:30:55;6.65;;;3.70;;
71959;SDS011;59832;51.146;14.024;2022-10-31T09:33:22;5.95;;;3.85;;
71959;SDS011;59832;51.146;14.024;2022-10-31T09:35:49;6.38;;;3.53;;
71959;SDS011;59832;51.146;14.024;2022-10-31T09:38:17;5.25;;;3.70;;
71959;SDS011;59832;51.146;14.024;2022-10-31T09:41:08;7.57;;;4.03;;
71959;SDS011;59832;51.146;14.024;2022-10-31T09:47:00;9.38;;;4.30;;
71959;SDS011;59832;51.146;14.024;2022-10-31T09:52:47;8.27;;;4.03;;
71959;SDS011;59832;51.146;14.024;2022-10-31T09:55:31;7.22;;;4.32;;
71959;SDS011;59832;51.146;14.024;2022-10-31T09:58:03;7.30;;;4.00;;
71959;SDS011;59832;51.146;14.024;2022-10-31T10:00:30;5.90;;;3.85;;
71959;SDS011;59832;51.146;14.024;2022-10-31T10:03:12;8.65;;;3.70;;
71959;SDS011;59832;51.146;14.024;2022-10-31T10:06:15;7.40;;;4.90;;
71959;SDS011;59832;51.146;14.024;2022-10-31T10:08:45;5.82;;;3.83;;
71959;SDS011;59832;51.146;14.024;2022-10-31T10:19:54;7.50;;;4.70;;
71959;SDS011;59832;51.146;14.024;2022-10-31T10:25:30;8.10;;;4.00;;
71959;SDS011;59832;51.146;14.024;2022-10-31T10:28:43;11.95;;;4.28;;
71959;SDS011;59832;51.146;14.024;2022-10-31T10:31:09;9.80;;;4.07;;
71959;SDS011;59832;51.146;14.024;2022-10-31T10:34:02;10.00;;;4.00;;
71959;SDS011;59832;51.146;14.024;2022-10-31T10:39:08;10.43;;;4.63;;
71959;SDS011;59832;51.146;14.024;2022-10-31T10:41:43;11.07;;;4.60;;
71959;SDS011;59832;51.146;14.024;2022-10-31T10:44:14;6.85;;;4.15;;
71959;SDS011;59832;51.146;14.024;2022-10-31T10:46:43;6.22;;;3.90;;
71959;SDS011;59832;51.146;14.024;2022-10-31T10:49:38;7.13;;;4.03;;
71959;SDS011;59832;51.146;14.024;2022-10-31T10:52:22;11.45;;;4.45;;
71959;SDS011;59832;51.146;14.024;2022-10-31T11:00:34;7.97;;;4.47;;
71959;SDS011;59832;51.146;14.024;2022-10-31T11:03:04;6.93;;;4.40;;
71959;SDS011;59832;51.146;14.024;2022-10-31T11:05:41;8.00;;;4.53;;
71959;SDS011;59832;51.146;14.024;2022-10-31T11:08:22;7.00;;;4.40;;
71959;SDS011;59832;51.146;14.024;2022-10-31T11:14:03;9.70;;;4.47;;
71959;SDS011;59832;51.146;14.024;2022-10-31T11:18:47;9.82;;;4.70;;
71959;SDS011;59832;51.146;14.024;2022-10-31T11:21:20;10.10;;;4.95;;
71959;SDS011;59832;51.146;14.024;2022-10-31T11:24:01;14.05;;;5.13;;
71959;SDS011;59832;51.146;14.024;2022-10-31T11:26:37;9.77;;;4.78;;
71959;SDS011;59832;51.146;14.024;2022-10-31T11:29:09;7.78;;;4.35;;
71959;SDS011;59832;51.146;14.024;2022-10-31T11:31:39;8.07;;;4.50;;
71959;SDS011;59832;51.146;14.024;2022-10-31T11:34:11;10.40;;;4.78;;
71959;SDS011;59832;51.146;14.024;2022-10-31T11:36:42;9.65;;;4.78;;
71959;SDS011;59832;51.146;14.024;2022-10-31T11:39:17;7.68;;;4.68;;
71959;SDS011;59832;51.146;14.024;2022-10-31T11:41:47;7.50;;;4.55;;
71959;SDS011;59832;51.146;14.024;2022-10-31T11:49:18;12.18;;;5.22;;
71959;SDS011;59832;51.146;14.024;2022-10-31T11:51:55;8.50;;;5.18;;
71959;SDS011;59832;51.146;14.024;2022-10-31T11:54:26;7.88;;;4.85;;
71959;SDS011;59832;51.146;14.024;2022-10-31T11:56:53;10.15;;;4.97;;
71959;SDS011;59832;51.146;14.024;2022-10-31T11:59:27;8.88;;;4.72;;
71959;SDS011;59832;51.146;14.024;2022-10-31T12:01:56;11.43;;;5.15;;
71959;SDS011;59832;51.146;14.024;2022-10-31T12:06:54;7.18;;;4.53;;
71959;SDS011;59832;51.146;14.024;2022-10-31T12:09:25;14.00;;;5.35;;
71959;SDS011;59832;51.146;14.024;2022-10-31T12:15:04;9.70;;;4.72;;
71959;SDS011;59832;51.146;14.024;2022-10-31T12:17:38;9.32;;;5.53;;
71959;SDS011;59832;51.146;14.024;2022-10-31T12:20:16;7.68;;;4.95;;
71959;SDS011;59832;51.146;14.024;2022-10-31T12:23:06;6.85;;;4.80;;
71959;SDS011;59832;51.146;14.024;2022-10-31T12:26:24;8.20;;;4.57;;
71959;SDS011;59832;51.146;14.024;2022-10-31T12:29:26;6.80;;;4.18;;
71959;SDS011;59832;51.146;14.024;2022-10-31T12:37:50;7.28;;;4.20;;
71959;SDS011;59832;51.146;14.024;2022-10-31T12:50:29;6.95;;;4.28;;
71959;SDS011;59832;51.146;14.024;2022-10-31T13:01:17;7.22;;;4.55;;
71959;SDS011;59832;51.146;14.024;2022-10-31T13:06:47;8.55;;;3.92;;
71959;SDS011;59832;51.146;14.024;2022-10-31T13:09:27;6.47;;;3.80;;
71959;SDS011;59832;51.146;14.024;2022-10-31T13:12:10;6.35;;;3.58;;
71959;SDS011;59832;51.146;14.024;2022-10-31T13:14:39;13.40;;;4.07;;
71959;SDS011;59832;51.146;14.024;2022-10-31T13:17:21;8.73;;;3.92;;
71959;SDS011;59832;51.146;14.024;2022-10-31T13:19:52;6.43;;;3.58;;
71959;SDS011;59832;51.146;14.024;2022-10-31T13:22:26;5.95;;;3.70;;
71959;SDS011;59832;51.146;14.024;2022-10-31T13:27:32;8.02;;;3.97;;
71959;SDS011;59832;51.146;14.024;2022-10-31T13:30:16;5.50;;;3.70;;
71959;SDS011;59832;51.146;14.024;2022-10-31T13:32:55;7.45;;;3.95;;
71959;SDS011;59832;51.146;14.024;2022-10-31T13:38:14;6.90;;;3.30;;
71959;SDS011;59832;51.146;14.024;2022-10-31T13:40:45;7.25;;;3.38;;
71959;SDS011;59832;51.146;14.024;2022-10-31T13:46:23;6.82;;;3.08;;
71959;SDS011;59832;51.146;14.024;2022-10-31T13:48:51;4.28;;;3.00;;
71959;SDS011;59832;51.146;14.024;2022-10-31T13:51:31;4.53;;;2.80;;
71959;SDS011;59832;51.146;14.024;2022-10-31T13:54:01;6.55;;;3.20;;
71959;SDS011;59832;51.146;14.024;2022-10-31T13:56:48;6.05;;;3.25;;
71959;SDS011;59832;51.146;14.024;2022-10-31T13:59:22;8.80;;;3.63;;
71959;SDS011;59832;51.146;14.024;2022-10-31T14:01:53;6.22;;;3.60;;
71959;SDS011;59832;51.146;14.024;2022-10-31T14:04:23;9.93;;;4.45;;
71959;SDS011;59832;51.146;14.024;2022-10-31T14:07:10;5.85;;;3.42;;
71959;SDS011;59832;51.146;14.024;2022-10-31T14:12:40;10.65;;;4.03;;
71959;SDS011;59832;51.146;14.024;2022-10-31T14:17:48;12.15;;;5.18;;
71959;SDS011;59832;51.146;14.024;2022-10-31T14:22:44;6.88;;;3.50;;
71959;SDS011;59832;51.146;14.024;2022-10-31T14:25:31;9.20;;;4.22;;
71959;SDS011;59832;51.146;14.024;2022-10-31T14:28:00;7.13;;;3.28;;
71959;SDS011;59832;51.146;14.024;2022-10-31T14:30:30;4.78;;;3.03;;
71959;SDS011;59832;51.146;14.024;2022-10-31T14:33:02;9.85;;;4.00;;
71959;SDS011;59832;51.146;14.024;2022-10-31T14:35:53;9.68;;;3.90;;
71959;SDS011;59832;51.146;14.024;2022-10-31T14:41:47;8.95;;;3.78;;
71959;SDS011;59832;51.146;14.024;2022-10-31T14:44:45;6.80;;;3.60;;
71959;SDS011;59832;51.146;14.024;2022-10-31T14:53:20;7.45;;;3.58;;
71959;SDS011;59832;51.146;14.024;2022-10-31T14:55:52;6.45;;;3.75;;
71959;SDS011;59832;51.146;14.024;2022-10-31T14:59:04;8.73;;;3.80;;
71959;SDS011;59832;51.146;14.024;2022-10-31T15:01:23;10.52;;;4.28;;
71959;SDS011;59832;51.146;14.024;2022-10-31T15:03:55;52.90;;;10.32;;
71959;SDS011;59832;51.146;14.024;2022-10-31T15:06:48;27.10;;;6.82;;
71959;SDS011;59832;51.146;14.024;2022-10-31T15:09:54;18.52;;;5.28;;
71959;SDS011;59832;51.146;14.024;2022-10-31T15:12:27;13.80;;;4.35;;
71959;SDS011;59832;51.146;14.024;2022-10-31T15:14:55;12.48;;;5.50;;
71959;SDS011;59832;51.146;14.024;2022-10-31T15:17:23;9.18;;;4.60;;
71959;SDS011;59832;51.146;14.024;2022-10-31T15:19:51;7.32;;;4.30;;
71959;SDS011;59832;51.146;14.024;2022-10-31T15:22:19;11.88;;;5.03;;
71959;SDS011;59832;51.146;14.024;2022-10-31T15:24:49;12.65;;;5.43;;
71959;SDS011;59832;51.146;14.024;2022-10-31T15:27:22;12.13;;;6.07;;
71959;SDS011;59832;51.146;14.024;2022-10-31T15:29:50;16.20;;;6.82;;
71959;SDS011;59832;51.146;14.024;2022-10-31T15:32:28;11.40;;;5.95;;
71959;SDS011;59832;51.146;14.024;2022-10-31T15:34:55;10.68;;;6.43;;
71959;SDS011;59832;51.146;14.024;2022-10-31T15:37:24;14.82;;;6.40;;
71959;SDS011;59832;51.146;14.024;2022-10-31T15:39:51;10.30;;;6.15;;
71959;SDS011;59832;51.146;14.024;2022-10-31T15:42:23;9.65;;;6.45;;
71959;SDS011;59832;51.146;14.024;2022-10-31T15:45:16;11.32;;;5.70;;
71959;SDS011;59832;51.146;14.024;2022-10-31T15:47:49;9.80;;;6.10;;
71959;SDS011;59832;51.146;14.024;2022-10-31T15:53:17;10.98;;;5.95;;
71959;SDS011;59832;51.146;14.024;2022-10-31T15:55:51;9.75;;;6.57;;
71959;SDS011;59832;51.146;14.024;2022-10-31T15:58:18;15.15;;;8.00;;
71959;SDS011;59832;51.146;14.024;2022-10-31T16:00:56;15.52;;;9.07;;
71959;SDS011;59832;51.146;14.024;2022-10-31T16:03:43;18.85;;;9.57;;
71959;SDS011;59832;51.146;14.024;2022-10-31T16:06:19;14.07;;;8.93;;
71959;SDS011;59832;51.146;14.024;2022-10-31T16:08:48;15.45;;;9.00;;
71959;SDS011;59832;51.146;14.024;2022-10-31T16:11:18;16.88;;;10.07;;
71959;SDS011;59832;51.146;14.024;2022-10-31T16:13:54;18.73;;;11.52;;
71959;SDS011;59832;51.146;14.024;2022-10-31T16:16:23;24.77;;;13.27;;
71959;SDS011;59832;51.146;14.024;2022-10-31T16:19:11;126.47;;;51.40;;
71959;SDS011;59832;51.146;14.024;2022-10-31T16:21:42;147.45;;;61.78;;
71959;SDS011;59832;51.146;14.024;2022-10-31T16:24:17;30.75;;;15.27;;
71959;SDS011;59832;51.146;14.024;2022-10-31T16:26:57;58.92;;;31.58;;
71959;SDS011;59832;51.146;14.024;2022-10-31T16:29:45;29.38;;;17.52;;
71959;SDS011;59832;51.146;14.024;2022-10-31T16:32:26;16.67;;;10.77;;
71959;SDS011;59832;51.146;14.024;2022-10-31T16:35:25;19.73;;;11.27;;
71959;SDS011;59832;51.146;14.024;2022-10-31T16:38:02;18.15;;;10.13;;
71959;SDS011;59832;51.146;14.024;2022-10-31T16:40:29;19.65;;;9.95;;
71959;SDS011;59832;51.146;14.024;2022-10-31T16:42:57;19.88;;;10.88;;
71959;SDS011;59832;51.146;14.024;2022-10-31T16:45:27;16.10;;;10.40;;
71959;SDS011;59832;51.146;14.024;2022-10-31T16:48:11;18.35;;;11.57;;
71959;SDS011;59832;51.146;14.024;2022-10-31T16:50:43;23.75;;;11.95;;
71959;SDS011;59832;51.146;14.024;2022-10-31T16:53:10;23.23;;;11.93;;
71959;SDS011;59832;51.146;14.024;2022-10-31T16:58:17;26.00;;;14.45;;
71959;SDS011;59832;51.146;14.024;2022-10-31T17:00:49;25.47;;;14.60;;
71959;SDS011;59832;51.146;14.024;2022-10-31T17:03:16;27.90;;;14.15;;
71959;SDS011;59832;51.146;14.024;2022-10-31T17:05:42;24.93;;;12.90;;
71959;SDS011;59832;51.146;14.024;2022-10-31T17:08:09;24.77;;;14.23;;
71959;SDS011;59832;51.146;14.024;2022-10-31T17:10:36;38.90;;;19.93;;